Terminal Aerodrome Forecast
Issued by NWS Mt. Holly, NJ

Home | Current Version | Previous Version | Text Only | Print | Product List | Glossary On
Versions: 1 2 3 4 5 6 7 8 9 10 11 12 13 14 15 16 17
000
FTUS41 KPHI 250522
TAFTTN
TAF
KTTN 250522Z 2506/2606 21005KT P6SM SCT100 BKN250 WS020/24038KT
     FM250900 24008KT P6SM BKN045
     FM251900 34007KT P6SM OVC040 PROB30 2519/2521 4SM -SHRA OVC020
     FM252100 03011KT 5SM -SHRA OVC025
     FM260000 07010KT 2SM -RA BR OVC010=

USA.gov is the U.S. government's official web portal to all federal, state and local government web resources and services.